sensor_id;sensor_type;location;lat;lon;timestamp;pressure;altitude;pressure_sealevel;temperature;humidity
71873;BME280;59745;52.924;-2.388;2022-09-20T00:03:03;100261.86;;;19.96;35.95
71873;BME280;59745;52.924;-2.388;2022-09-20T00:05:27;100257.99;;;19.74;36.25
71873;BME280;59745;52.924;-2.388;2022-09-20T00:07:52;100256.91;;;19.67;36.53
71873;BME280;59745;52.924;-2.388;2022-09-20T00:10:17;100256.59;;;20.11;35.50
71873;BME280;59745;52.924;-2.388;2022-09-20T00:12:42;100259.63;;;19.69;36.19
71873;BME280;59745;52.924;-2.388;2022-09-20T00:15:08;100263.11;;;19.94;36.28
71873;BME280;59745;52.924;-2.388;2022-09-20T00:17:33;100262.20;;;19.89;36.80
71873;BME280;59745;52.924;-2.388;2022-09-20T00:19:58;100267.15;;;19.56;37.09
71873;BME280;59745;52.924;-2.388;2022-09-20T00:22:24;100269.68;;;19.71;37.48
71873;BME280;59745;52.924;-2.388;2022-09-20T00:24:49;100266.57;;;19.37;37.88
71873;BME280;59745;52.924;-2.388;2022-09-20T00:27:14;100269.05;;;19.33;37.87
71873;BME280;59745;52.924;-2.388;2022-09-20T00:29:39;100264.73;;;19.33;38.02
71873;BME280;59745;52.924;-2.388;2022-09-20T00:32:04;100269.36;;;19.50;37.33
71873;BME280;59745;52.924;-2.388;2022-09-20T00:34:29;100268.45;;;18.93;37.86
71873;BME280;59745;52.924;-2.388;2022-09-20T00:36:55;100267.11;;;18.89;38.15
71873;BME280;59745;52.924;-2.388;2022-09-20T00:39:20;100267.93;;;19.24;38.32
71873;BME280;59745;52.924;-2.388;2022-09-20T00:41:45;100268.50;;;19.36;38.43
71873;BME280;59745;52.924;-2.388;2022-09-20T00:46:38;100273.12;;;19.18;37.95
71873;BME280;59745;52.924;-2.388;2022-09-20T00:49:13;100273.69;;;19.07;38.14
71873;BME280;59745;52.924;-2.388;2022-09-20T00:51:28;100275.64;;;19.08;38.19
71873;BME280;59745;52.924;-2.388;2022-09-20T00:53:54;100279.51;;;19.18;38.18
71873;BME280;59745;52.924;-2.388;2022-09-20T00:56:19;100283.43;;;19.31;37.84
71873;BME280;59745;52.924;-2.388;2022-09-20T00:58:45;100284.15;;;19.27;37.55
71873;BME280;59745;52.924;-2.388;2022-09-20T01:01:08;100288.14;;;19.10;37.81
71873;BME280;59745;52.924;-2.388;2022-09-20T01:03:34;100289.23;;;19.07;37.92
71873;BME280;59745;52.924;-2.388;2022-09-20T01:06:02;100289.33;;;19.36;37.90
71873;BME280;59745;52.924;-2.388;2022-09-20T01:08:23;100291.41;;;19.27;37.98
71873;BME280;59745;52.924;-2.388;2022-09-20T01:10:48;100290.92;;;19.05;37.95
71873;BME280;59745;52.924;-2.388;2022-09-20T01:13:13;100294.17;;;19.07;37.91
71873;BME280;59745;52.924;-2.388;2022-09-20T01:15:39;100294.98;;;19.06;37.87
71873;BME280;59745;52.924;-2.388;2022-09-20T01:18:05;100295.03;;;19.09;37.81
71873;BME280;59745;52.924;-2.388;2022-09-20T01:20:31;100295.11;;;19.37;37.70
71873;BME280;59745;52.924;-2.388;2022-09-20T01:23:11;100295.66;;;19.13;37.61
71873;BME280;59745;52.924;-2.388;2022-09-20T01:25:32;100291.81;;;19.60;37.65
71873;BME280;59745;52.924;-2.388;2022-09-20T01:27:46;100292.11;;;19.19;37.61
71873;BME280;59745;52.924;-2.388;2022-09-20T01:30:13;100292.33;;;19.17;37.63
71873;BME280;59745;52.924;-2.388;2022-09-20T01:32:45;100294.89;;;19.31;37.31
71873;BME280;59745;52.924;-2.388;2022-09-20T01:35:01;100294.10;;;19.22;37.51
71873;BME280;59745;52.924;-2.388;2022-09-20T01:37:27;100296.85;;;19.40;37.76
71873;BME280;59745;52.924;-2.388;2022-09-20T01:39:59;100296.55;;;19.15;37.98
71873;BME280;59745;52.924;-2.388;2022-09-20T01:42:17;100297.47;;;19.20;38.12
71873;BME280;59745;52.924;-2.388;2022-09-20T01:44:50;100300.77;;;19.79;38.10
71873;BME280;59745;52.924;-2.388;2022-09-20T01:47:14;100300.00;;;19.42;37.95
71873;BME280;59745;52.924;-2.388;2022-09-20T01:49:41;100298.29;;;19.21;38.23
71873;BME280;59745;52.924;-2.388;2022-09-20T01:52:15;100300.52;;;19.54;37.98
71873;BME280;59745;52.924;-2.388;2022-09-20T02:04:19;100298.67;;;19.67;37.40
71873;BME280;59745;52.924;-2.388;2022-09-20T02:06:41;100295.53;;;19.40;37.62
71873;BME280;59745;52.924;-2.388;2022-09-20T02:09:10;100296.82;;;19.48;37.77
71873;BME280;59745;52.924;-2.388;2022-09-20T02:11:21;100297.67;;;19.88;37.95
71873;BME280;59745;52.924;-2.388;2022-09-20T02:13:57;100294.94;;;19.66;37.99
71873;BME280;59745;52.924;-2.388;2022-09-20T02:16:21;100296.40;;;19.35;38.03
71873;BME280;59745;52.924;-2.388;2022-09-20T02:18:46;100292.82;;;19.18;38.59
71873;BME280;59745;52.924;-2.388;2022-09-20T02:21:07;100288.50;;;19.07;39.03
71873;BME280;59745;52.924;-2.388;2022-09-20T02:23:36;100288.36;;;19.47;39.21
71873;BME280;59745;52.924;-2.388;2022-09-20T02:26:02;100290.02;;;19.01;39.16
71873;BME280;59745;52.924;-2.388;2022-09-20T02:28:25;100292.03;;;18.93;39.39
71873;BME280;59745;52.924;-2.388;2022-09-20T02:30:48;100291.26;;;19.01;39.48
71873;BME280;59745;52.924;-2.388;2022-09-20T02:33:15;100287.40;;;19.22;39.32
71873;BME280;59745;52.924;-2.388;2022-09-20T02:35:39;100286.04;;;19.14;39.50
71873;BME280;59745;52.924;-2.388;2022-09-20T02:38:04;100285.81;;;19.20;39.58
71873;BME280;59745;52.924;-2.388;2022-09-20T02:40:34;100287.70;;;19.27;39.61
71873;BME280;59745;52.924;-2.388;2022-09-20T02:42:55;100290.47;;;19.42;39.57
71873;BME280;59745;52.924;-2.388;2022-09-20T02:45:17;100286.50;;;19.53;39.46
71873;BME280;59745;52.924;-2.388;2022-09-20T02:47:40;100285.08;;;19.64;39.37
71873;BME280;59745;52.924;-2.388;2022-09-20T02:50:19;100283.61;;;19.50;39.21
71873;BME280;59745;52.924;-2.388;2022-09-20T02:52:32;100281.84;;;19.80;39.10
71873;BME280;59745;52.924;-2.388;2022-09-20T02:55:00;100282.65;;;19.82;39.17
71873;BME280;59745;52.924;-2.388;2022-09-20T02:57:25;100281.57;;;19.98;39.03
71873;BME280;59745;52.924;-2.388;2022-09-20T02:59:48;100280.25;;;19.50;39.00
71873;BME280;59745;52.924;-2.388;2022-09-20T03:02:18;100276.09;;;19.57;38.86
71873;BME280;59745;52.924;-2.388;2022-09-20T03:04:43;100272.69;;;19.83;38.85
71873;BME280;59745;52.924;-2.388;2022-09-20T03:07:04;100271.19;;;20.15;38.77
71873;BME280;59745;52.924;-2.388;2022-09-20T03:09:31;100271.18;;;19.95;38.76
71873;BME280;59745;52.924;-2.388;2022-09-20T03:11:58;100267.54;;;20.25;38.68
71873;BME280;59745;52.924;-2.388;2022-09-20T03:14:18;100268.52;;;19.85;38.57
71873;BME280;59745;52.924;-2.388;2022-09-20T03:16:51;100267.43;;;20.40;38.37
71873;BME280;59745;52.924;-2.388;2022-09-20T03:19:14;100266.21;;;19.92;38.28
71873;BME280;59745;52.924;-2.388;2022-09-20T03:21:39;100265.96;;;19.93;38.19
71873;BME280;59745;52.924;-2.388;2022-09-20T03:24:03;100262.37;;;20.47;38.05
71873;BME280;59745;52.924;-2.388;2022-09-20T03:26:31;100260.41;;;19.91;38.13
71873;BME280;59745;52.924;-2.388;2022-09-20T03:28:56;100256.26;;;20.15;38.12
71873;BME280;59745;52.924;-2.388;2022-09-20T03:31:20;100256.54;;;20.20;38.01
71873;BME280;59745;52.924;-2.388;2022-09-20T03:33:45;100253.04;;;19.97;37.90
71873;BME280;59745;52.924;-2.388;2022-09-20T03:36:13;100250.83;;;19.99;37.80
71873;BME280;59745;52.924;-2.388;2022-09-20T03:38:40;100247.85;;;20.08;37.59
71873;BME280;59745;52.924;-2.388;2022-09-20T03:41:03;100245.26;;;20.56;37.18
71873;BME280;59745;52.924;-2.388;2022-09-20T03:43:25;100245.64;;;19.88;37.48
71873;BME280;59745;52.924;-2.388;2022-09-20T03:45:50;100242.02;;;20.09;37.56
71873;BME280;59745;52.924;-2.388;2022-09-20T03:48:20;100239.00;;;20.40;37.46
71873;BME280;59745;52.924;-2.388;2022-09-20T03:50:44;100238.90;;;19.92;37.16
71873;BME280;59745;52.924;-2.388;2022-09-20T03:53:15;100239.08;;;20.39;37.08
71873;BME280;59745;52.924;-2.388;2022-09-20T03:55:36;100236.26;;;19.85;36.93
71873;BME280;59745;52.924;-2.388;2022-09-20T03:57:59;100235.51;;;20.25;36.92
71873;BME280;59745;52.924;-2.388;2022-09-20T04:00:22;100234.80;;;19.90;36.89
71873;BME280;59745;52.924;-2.388;2022-09-20T04:05:08;100230.06;;;19.91;37.37
71873;BME280;59745;52.924;-2.388;2022-09-20T04:07:38;100230.83;;;19.63;37.43
71873;BME280;59745;52.924;-2.388;2022-09-20T04:10:00;100229.77;;;20.20;36.69
71873;BME280;59745;52.924;-2.388;2022-09-20T04:12:27;100229.42;;;20.11;36.35
71873;BME280;59745;52.924;-2.388;2022-09-20T04:14:52;100228.03;;;19.96;36.45
71873;BME280;59745;52.924;-2.388;2022-09-20T04:17:21;100230.36;;;19.50;36.56
71873;BME280;59745;52.924;-2.388;2022-09-20T04:19:41;100231.54;;;19.63;36.72
71873;BME280;59745;52.924;-2.388;2022-09-20T04:22:01;100233.02;;;19.29;36.82
71873;BME280;59745;52.924;-2.388;2022-09-20T04:24:35;100229.85;;;19.43;36.99
71873;BME280;59745;52.924;-2.388;2022-09-20T04:26:57;100232.61;;;19.57;36.49
71873;BME280;59745;52.924;-2.388;2022-09-20T04:29:26;100239.34;;;19.28;36.74
71873;BME280;59745;52.924;-2.388;2022-09-20T04:31:46;100241.08;;;19.04;37.14
71873;BME280;59745;52.924;-2.388;2022-09-20T04:34:12;100238.90;;;19.07;37.16
71873;BME280;59745;52.924;-2.388;2022-09-20T04:39:06;100242.30;;;19.20;37.05
71873;BME280;59745;52.924;-2.388;2022-09-20T04:44:02;100246.13;;;18.96;37.48
71873;BME280;59745;52.924;-2.388;2022-09-20T04:46:29;100246.99;;;19.14;37.64
71873;BME280;59745;52.924;-2.388;2022-09-20T04:55:59;100244.97;;;19.17;36.69
71873;BME280;59745;52.924;-2.388;2022-09-20T04:58:35;100245.04;;;18.96;36.88
71873;BME280;59745;52.924;-2.388;2022-09-20T05:00:58;100248.97;;;19.04;37.21
71873;BME280;59745;52.924;-2.388;2022-09-20T05:03:30;100250.12;;;19.24;36.90
71873;BME280;59745;52.924;-2.388;2022-09-20T05:05:52;100250.82;;;19.02;36.82
71873;BME280;59745;52.924;-2.388;2022-09-20T05:10:42;100253.35;;;18.76;37.23
71873;BME280;59745;52.924;-2.388;2022-09-20T05:13:04;100255.89;;;18.66;37.37
71873;BME280;59745;52.924;-2.388;2022-09-20T05:15:31;100261.66;;;18.61;37.71
71873;BME280;59745;52.924;-2.388;2022-09-20T05:17:59;100261.22;;;18.69;37.44
71873;BME280;59745;52.924;-2.388;2022-09-20T05:20:24;100258.14;;;18.64;37.47
71873;BME280;59745;52.924;-2.388;2022-09-20T05:22:51;100260.53;;;18.55;37.83
71873;BME280;59745;52.924;-2.388;2022-09-20T05:25:13;100264.01;;;18.59;38.09
71873;BME280;59745;52.924;-2.388;2022-09-20T05:27:35;100262.33;;;18.85;38.09
71873;BME280;59745;52.924;-2.388;2022-09-20T05:29:56;100262.11;;;18.50;38.24
71873;BME280;59745;52.924;-2.388;2022-09-20T05:32:22;100261.03;;;19.00;37.64
71873;BME280;59745;52.924;-2.388;2022-09-20T05:34:45;100263.22;;;18.61;38.05
71873;BME280;59745;52.924;-2.388;2022-09-20T05:37:15;100263.98;;;18.46;38.42
71873;BME280;59745;52.924;-2.388;2022-09-20T05:39:36;100266.98;;;18.69;38.69
71873;BME280;59745;52.924;-2.388;2022-09-20T05:42:08;100267.03;;;18.59;38.83
71873;BME280;59745;52.924;-2.388;2022-09-20T05:44:28;100268.33;;;18.68;38.92
71873;BME280;59745;52.924;-2.388;2022-09-20T05:46:56;100267.67;;;19.00;38.72
71873;BME280;59745;52.924;-2.388;2022-09-20T05:49:21;100267.23;;;19.15;38.34
71873;BME280;59745;52.924;-2.388;2022-09-20T05:51:51;100267.59;;;18.92;38.79
71873;BME280;59745;52.924;-2.388;2022-09-20T05:56:36;100267.97;;;19.07;39.00
71873;BME280;59745;52.924;-2.388;2022-09-20T05:59:08;100267.68;;;18.94;39.01
71873;BME280;59745;52.924;-2.388;2022-09-20T06:01:25;100267.44;;;19.10;38.98
71873;BME280;59745;52.924;-2.388;2022-09-20T06:03:48;100268.16;;;19.13;39.06
71873;BME280;59745;52.924;-2.388;2022-09-20T06:06:16;100270.19;;;19.23;39.06
71873;BME280;59745;52.924;-2.388;2022-09-20T06:08:52;100271.65;;;19.33;39.08
71873;BME280;59745;52.924;-2.388;2022-09-20T06:11:13;100271.07;;;19.80;38.35
71873;BME280;59745;52.924;-2.388;2022-09-20T06:13:39;100274.02;;;19.58;38.62
71873;BME280;59745;52.924;-2.388;2022-09-20T06:15:56;100273.32;;;19.57;38.81
71873;BME280;59745;52.924;-2.388;2022-09-20T06:18:24;100274.95;;;19.90;38.88
71873;BME280;59745;52.924;-2.388;2022-09-20T06:20:49;100271.55;;;19.91;38.68
71873;BME280;59745;52.924;-2.388;2022-09-20T06:23:11;100271.30;;;20.21;37.99
71873;BME280;59745;52.924;-2.388;2022-09-20T06:25:41;100271.43;;;19.90;38.49
71873;BME280;59745;52.924;-2.388;2022-09-20T06:28:04;100273.86;;;19.68;38.81
71873;BME280;59745;52.924;-2.388;2022-09-20T06:30:28;100274.80;;;19.81;38.92
71873;BME280;59745;52.924;-2.388;2022-09-20T06:32:54;100279.00;;;19.92;38.94
71873;BME280;59745;52.924;-2.388;2022-09-20T06:35:18;100283.71;;;20.20;39.06
71873;BME280;59745;52.924;-2.388;2022-09-20T06:37:47;100289.39;;;20.14;38.92
71873;BME280;59745;52.924;-2.388;2022-09-20T06:40:26;100289.94;;;20.07;38.65
71873;BME280;59745;52.924;-2.388;2022-09-20T06:42:34;100292.28;;;20.53;38.75
71873;BME280;59745;52.924;-2.388;2022-09-20T06:45:00;100296.23;;;20.23;38.66
71873;BME280;59745;52.924;-2.388;2022-09-20T06:47:25;100295.18;;;20.41;38.78
71873;BME280;59745;52.924;-2.388;2022-09-20T06:49:51;100299.11;;;20.23;38.80
71873;BME280;59745;52.924;-2.388;2022-09-20T06:52:17;100297.59;;;20.33;38.82
71873;BME280;59745;52.924;-2.388;2022-09-20T06:54:42;100297.82;;;20.89;38.90
71873;BME280;59745;52.924;-2.388;2022-09-20T06:57:08;100299.09;;;20.47;38.96
71873;BME280;59745;52.924;-2.388;2022-09-20T06:59:33;100296.77;;;20.90;38.81
71873;BME280;59745;52.924;-2.388;2022-09-20T07:01:58;100297.61;;;21.03;38.69
71873;BME280;59745;52.924;-2.388;2022-09-20T07:04:23;100298.55;;;20.75;39.02
71873;BME280;59745;52.924;-2.388;2022-09-20T07:06:48;100299.95;;;20.85;39.17
71873;BME280;59745;52.924;-2.388;2022-09-20T07:09:13;100298.98;;;20.92;39.29
71873;BME280;59745;52.924;-2.388;2022-09-20T07:11:39;100303.14;;;21.13;39.27
71873;BME280;59745;52.924;-2.388;2022-09-20T07:14:04;100302.82;;;21.10;39.04
71873;BME280;59745;52.924;-2.388;2022-09-20T07:16:29;100301.99;;;21.21;38.91
71873;BME280;59745;52.924;-2.388;2022-09-20T07:18:54;100304.10;;;21.68;38.58
71873;BME280;59745;52.924;-2.388;2022-09-20T07:21:20;100300.40;;;21.57;38.40
71873;BME280;59745;52.924;-2.388;2022-09-20T07:23:45;100302.02;;;21.58;37.72
71873;BME280;59745;52.924;-2.388;2022-09-20T07:26:17;100299.99;;;21.63;37.50
71873;BME280;59745;52.924;-2.388;2022-09-20T07:28:34;100298.66;;;22.00;37.32
71873;BME280;59745;52.924;-2.388;2022-09-20T07:31:00;100301.62;;;21.80;37.35
71873;BME280;59745;52.924;-2.388;2022-09-20T07:33:25;100305.40;;;21.95;37.08
71873;BME280;59745;52.924;-2.388;2022-09-20T07:35:51;100310.14;;;22.08;36.78
71873;BME280;59745;52.924;-2.388;2022-09-20T07:38:15;100314.78;;;22.26;36.40
71873;BME280;59745;52.924;-2.388;2022-09-20T07:40:40;100311.33;;;22.26;36.49
71873;BME280;59745;52.924;-2.388;2022-09-20T07:43:05;100312.23;;;22.25;36.40
71873;BME280;59745;52.924;-2.388;2022-09-20T07:45:30;100311.66;;;22.08;36.70
71873;BME280;59745;52.924;-2.388;2022-09-20T07:47:56;100310.60;;;22.09;36.69
71873;BME280;59745;52.924;-2.388;2022-09-20T07:50:21;100309.89;;;22.21;36.66
71873;BME280;59745;52.924;-2.388;2022-09-20T07:52:46;100312.35;;;22.19;36.81
71873;BME280;59745;52.924;-2.388;2022-09-20T07:55:11;100314.89;;;22.56;36.83
71873;BME280;59745;52.924;-2.388;2022-09-20T07:57:37;100316.66;;;22.32;36.77
71873;BME280;59745;52.924;-2.388;2022-09-20T08:00:04;100316.47;;;22.20;36.96
71873;BME280;59745;52.924;-2.388;2022-09-20T08:02:27;100315.20;;;21.91;36.93
71873;BME280;59745;52.924;-2.388;2022-09-20T08:04:52;100317.90;;;22.23;36.84
71873;BME280;59745;52.924;-2.388;2022-09-20T08:07:17;100315.26;;;21.99;37.17
71873;BME280;59745;52.924;-2.388;2022-09-20T08:09:42;100316.39;;;22.14;37.27
71873;BME280;59745;52.924;-2.388;2022-09-20T08:12:07;100313.37;;;22.42;37.08
71873;BME280;59745;52.924;-2.388;2022-09-20T08:14:32;100313.69;;;22.31;37.08
71873;BME280;59745;52.924;-2.388;2022-09-20T08:16:57;100315.82;;;22.68;36.93
71873;BME280;59745;52.924;-2.388;2022-09-20T08:19:23;100317.52;;;22.47;36.98
71873;BME280;59745;52.924;-2.388;2022-09-20T08:21:49;100321.09;;;22.57;36.59
71873;BME280;59745;52.924;-2.388;2022-09-20T08:24:13;100324.81;;;22.61;35.89
71873;BME280;59745;52.924;-2.388;2022-09-20T08:26:38;100325.50;;;22.71;35.63
71873;BME280;59745;52.924;-2.388;2022-09-20T08:29:04;100326.88;;;22.75;35.53
71873;BME280;59745;52.924;-2.388;2022-09-20T08:31:30;100327.74;;;22.62;35.64
71873;BME280;59745;52.924;-2.388;2022-09-20T08:33:54;100331.91;;;22.83;35.54
71873;BME280;59745;52.924;-2.388;2022-09-20T08:36:21;100333.18;;;22.71;35.55
71873;BME280;59745;52.924;-2.388;2022-09-20T08:38:44;100335.53;;;22.74;36.20
71873;BME280;59745;52.924;-2.388;2022-09-20T08:41:11;100334.16;;;22.81;36.04
71873;BME280;59745;52.924;-2.388;2022-09-20T08:43:38;100331.87;;;22.83;36.12
71873;BME280;59745;52.924;-2.388;2022-09-20T08:46:02;100333.79;;;22.59;36.11
71873;BME280;59745;52.924;-2.388;2022-09-20T08:48:29;100336.71;;;22.35;36.10
71873;BME280;59745;52.924;-2.388;2022-09-20T08:50:52;100338.16;;;22.73;36.38
71873;BME280;59745;52.924;-2.388;2022-09-20T08:53:17;100344.03;;;22.72;36.40
71873;BME280;59745;52.924;-2.388;2022-09-20T08:55:43;100340.71;;;22.74;36.36
71873;BME280;59745;52.924;-2.388;2022-09-20T08:58:10;100336.17;;;22.63;36.30
71873;BME280;59745;52.924;-2.388;2022-09-20T09:00:33;100336.57;;;22.90;36.28
71873;BME280;59745;52.924;-2.388;2022-09-20T09:03:02;100340.33;;;22.82;36.78
71873;BME280;59745;52.924;-2.388;2022-09-20T09:05:30;100340.25;;;23.14;36.26
71873;BME280;59745;52.924;-2.388;2022-09-20T09:07:48;100340.09;;;22.94;36.10
71873;BME280;59745;52.924;-2.388;2022-09-20T09:10:14;100341.57;;;23.14;35.70
71873;BME280;59745;52.924;-2.388;2022-09-20T09:12:42;100340.43;;;22.84;35.85
71873;BME280;59745;52.924;-2.388;2022-09-20T09:15:19;100336.52;;;22.74;36.15
71873;BME280;59745;52.924;-2.388;2022-09-20T09:17:30;100334.14;;;23.25;36.16
71873;BME280;59745;52.924;-2.388;2022-09-20T09:19:57;100333.14;;;22.74;36.08
71873;BME280;59745;52.924;-2.388;2022-09-20T09:22:24;100334.74;;;23.26;36.09
71873;BME280;59745;52.924;-2.388;2022-09-20T09:27:14;100338.09;;;23.82;34.25
71873;BME280;59745;52.924;-2.388;2022-09-20T09:34:28;100348.80;;;23.85;34.17
71873;BME280;59745;52.924;-2.388;2022-09-20T09:36:53;100351.08;;;23.86;33.92
71873;BME280;59745;52.924;-2.388;2022-09-20T09:39:23;100352.56;;;23.78;34.81
71873;BME280;59745;52.924;-2.388;2022-09-20T09:41:42;100354.94;;;23.93;35.16
71873;BME280;59745;52.924;-2.388;2022-09-20T09:44:18;100355.73;;;24.11;34.29
71873;BME280;59745;52.924;-2.388;2022-09-20T09:46:33;100356.51;;;24.00;34.87
71873;BME280;59745;52.924;-2.388;2022-09-20T09:49:06;100357.12;;;24.31;34.52
71873;BME280;59745;52.924;-2.388;2022-09-20T09:51:23;100355.10;;;24.19;34.64
71873;BME280;59745;52.924;-2.388;2022-09-20T09:53:48;100350.78;;;24.09;34.70
71873;BME280;59745;52.924;-2.388;2022-09-20T09:56:30;100350.47;;;23.69;35.16
71873;BME280;59745;52.924;-2.388;2022-09-20T09:58:48;100350.01;;;23.96;35.31
71873;BME280;59745;52.924;-2.388;2022-09-20T10:01:06;100351.34;;;23.94;35.50
71873;BME280;59745;52.924;-2.388;2022-09-20T10:03:38;100354.11;;;23.88;35.64
71873;BME280;59745;52.924;-2.388;2022-09-20T10:06:03;100352.14;;;24.24;35.01
71873;BME280;59745;52.924;-2.388;2022-09-20T10:08:26;100353.78;;;24.29;34.85
71873;BME280;59745;52.924;-2.388;2022-09-20T10:10:54;100352.27;;;24.40;34.79
71873;BME280;59745;52.924;-2.388;2022-09-20T10:13:17;100352.18;;;24.42;34.69
71873;BME280;59745;52.924;-2.388;2022-09-20T10:15:39;100349.62;;;24.12;34.69
71873;BME280;59745;52.924;-2.388;2022-09-20T10:18:12;100351.54;;;24.00;34.97
71873;BME280;59745;52.924;-2.388;2022-09-20T10:20:42;100352.35;;;24.13;35.11
71873;BME280;59745;52.924;-2.388;2022-09-20T10:22:55;100352.20;;;24.62;35.05
71873;BME280;59745;52.924;-2.388;2022-09-20T10:25:24;100352.28;;;24.85;34.53
71873;BME280;59745;52.924;-2.388;2022-09-20T10:27:51;100354.85;;;24.69;34.66
71873;BME280;59745;52.924;-2.388;2022-09-20T10:30:09;100359.76;;;24.89;34.85
71873;BME280;59745;52.924;-2.388;2022-09-20T10:32:43;100357.55;;;25.21;34.65
71873;BME280;59745;52.924;-2.388;2022-09-20T10:35:06;100363.37;;;25.12;34.59
71873;BME280;59745;52.924;-2.388;2022-09-20T10:37:27;100359.89;;;25.55;34.55
71873;BME280;59745;52.924;-2.388;2022-09-20T10:39:53;100358.13;;;25.12;34.71
71873;BME280;59745;52.924;-2.388;2022-09-20T10:42:20;100359.42;;;25.52;33.37
71873;BME280;59745;52.924;-2.388;2022-09-20T10:44:45;100359.66;;;25.44;33.70
71873;BME280;59745;52.924;-2.388;2022-09-20T10:47:09;100361.33;;;25.43;33.00
71873;BME280;59745;52.924;-2.388;2022-09-20T10:49:34;100360.02;;;25.42;32.90
71873;BME280;59745;52.924;-2.388;2022-09-20T10:52:02;100359.52;;;25.88;32.59
71873;BME280;59745;52.924;-2.388;2022-09-20T10:54:27;100359.19;;;26.24;31.70
71873;BME280;59745;52.924;-2.388;2022-09-20T10:56:46;100356.39;;;26.08;29.62
71873;BME280;59745;52.924;-2.388;2022-09-20T10:59:16;100353.78;;;25.96;30.58
71873;BME280;59745;52.924;-2.388;2022-09-20T11:01:36;100355.64;;;26.32;31.07
71873;BME280;59745;52.924;-2.388;2022-09-20T11:04:12;100353.52;;;26.44;30.67
71873;BME280;59745;52.924;-2.388;2022-09-20T11:06:31;100350.83;;;26.51;30.07
71873;BME280;59745;52.924;-2.388;2022-09-20T11:08:53;100351.20;;;26.14;30.46
71873;BME280;59745;52.924;-2.388;2022-09-20T11:11:18;100351.17;;;26.41;30.63
71873;BME280;59745;52.924;-2.388;2022-09-20T11:13:44;100353.42;;;26.40;31.51
71873;BME280;59745;52.924;-2.388;2022-09-20T11:16:08;100349.39;;;26.67;31.16
71873;BME280;59745;52.924;-2.388;2022-09-20T11:18:32;100347.42;;;26.58;28.81
71873;BME280;59745;52.924;-2.388;2022-09-20T11:21:01;100345.25;;;26.40;29.95
71873;BME280;59745;52.924;-2.388;2022-09-20T11:23:22;100343.18;;;26.46;28.82
71873;BME280;59745;52.924;-2.388;2022-09-20T11:25:48;100340.01;;;26.44;29.40
71873;BME280;59745;52.924;-2.388;2022-09-20T11:28:14;100340.58;;;26.21;30.33
71873;BME280;59745;52.924;-2.388;2022-09-20T11:30:36;100338.91;;;26.75;29.73
71873;BME280;59745;52.924;-2.388;2022-09-20T11:33:06;100340.32;;;26.56;29.90
71873;BME280;59745;52.924;-2.388;2022-09-20T11:35:29;100340.40;;;26.80;29.96
71873;BME280;59745;52.924;-2.388;2022-09-20T11:37:55;100337.41;;;26.72;28.86
71873;BME280;59745;52.924;-2.388;2022-09-20T11:40:21;100332.26;;;27.26;27.54
71873;BME280;59745;52.924;-2.388;2022-09-20T11:42:41;100331.24;;;26.86;28.79
71873;BME280;59745;52.924;-2.388;2022-09-20T11:45:09;100332.72;;;26.89;28.64
71873;BME280;59745;52.924;-2.388;2022-09-20T11:47:33;100331.72;;;26.95;26.78
71873;BME280;59745;52.924;-2.388;2022-09-20T11:52:35;100334.47;;;27.02;28.30
71873;BME280;59745;52.924;-2.388;2022-09-20T11:54:56;100336.72;;;27.31;29.80
71873;BME280;59745;52.924;-2.388;2022-09-20T11:57:12;100336.41;;;27.30;28.40
71873;BME280;59745;52.924;-2.388;2022-09-20T11:59:38;100331.25;;;27.65;28.66
71873;BME280;59745;52.924;-2.388;2022-09-20T12:02:03;100333.81;;;27.79;27.72
71873;BME280;59745;52.924;-2.388;2022-09-20T12:04:28;100331.21;;;27.54;28.63
71873;BME280;59745;52.924;-2.388;2022-09-20T12:06:58;100329.40;;;27.69;28.13
71873;BME280;59745;52.924;-2.388;2022-09-20T12:09:23;100326.09;;;27.28;26.75
71873;BME280;59745;52.924;-2.388;2022-09-20T12:11:42;100328.93;;;27.71;26.82
71873;BME280;59745;52.924;-2.388;2022-09-20T12:14:16;100328.99;;;28.14;26.83
71873;BME280;59745;52.924;-2.388;2022-09-20T12:16:37;100328.51;;;27.74;26.71
71873;BME280;59745;52.924;-2.388;2022-09-20T12:19:02;100328.51;;;27.61;24.01
71873;BME280;59745;52.924;-2.388;2022-09-20T12:21:24;100328.15;;;27.49;24.79
71873;BME280;59745;52.924;-2.388;2022-09-20T12:23:59;100325.67;;;27.89;24.63
71873;BME280;59745;52.924;-2.388;2022-09-20T12:28:41;100321.49;;;28.16;24.50
71873;BME280;59745;52.924;-2.388;2022-09-20T12:38:32;100318.83;;;28.45;23.11
71873;BME280;59745;52.924;-2.388;2022-09-20T12:40:57;100317.74;;;28.59;24.29
71873;BME280;59745;52.924;-2.388;2022-09-20T12:43:20;100317.52;;;28.75;23.89
71873;BME280;59745;52.924;-2.388;2022-09-20T12:45:35;100313.69;;;28.60;23.32
71873;BME280;59745;52.924;-2.388;2022-09-20T12:48:01;100311.31;;;28.92;22.09
71873;BME280;59745;52.924;-2.388;2022-09-20T12:50:27;100308.47;;;28.70;22.40
71873;BME280;59745;52.924;-2.388;2022-09-20T12:52:54;100304.73;;;28.96;23.07
71873;BME280;59745;52.924;-2.388;2022-09-20T12:55:30;100300.15;;;29.00;22.49
71873;BME280;59745;52.924;-2.388;2022-09-20T12:57:50;100298.96;;;29.02;22.45
71873;BME280;59745;52.924;-2.388;2022-09-20T13:02:57;100299.19;;;28.93;22.58
71873;BME280;59745;52.924;-2.388;2022-09-20T13:07:35;100290.18;;;28.65;22.40
71873;BME280;59745;52.924;-2.388;2022-09-20T13:09:54;100292.67;;;28.76;22.59
71873;BME280;59745;52.924;-2.388;2022-09-20T13:12:20;100295.35;;;29.04;22.12
71873;BME280;59745;52.924;-2.388;2022-09-20T13:14:46;100295.81;;;28.84;23.31
71873;BME280;59745;52.924;-2.388;2022-09-20T13:17:18;100298.06;;;28.65;23.36
71873;BME280;59745;52.924;-2.388;2022-09-20T13:19:41;100303.05;;;28.76;23.38
71873;BME280;59745;52.924;-2.388;2022-09-20T13:22:05;100301.53;;;29.17;23.58
71873;BME280;59745;52.924;-2.388;2022-09-20T13:24:31;100297.98;;;28.91;23.72
71873;BME280;59745;52.924;-2.388;2022-09-20T13:27:00;100295.69;;;28.99;22.35